sensor_id;sensor_type;location;lat;lon;timestamp;P1;durP1;ratioP1;P2;durP2;ratioP2
71566;SDS011;59403;47.456;19.120;2023-02-11T00:00:16;63.63;;;24.87;;
71566;SDS011;59403;47.456;19.120;2023-02-11T00:02:45;61.90;;;24.47;;
71566;SDS011;59403;47.456;19.120;2023-02-11T00:05:12;58.80;;;23.90;;
71566;SDS011;59403;47.456;19.120;2023-02-11T00:07:39;61.78;;;25.05;;
71566;SDS011;59403;47.456;19.120;2023-02-11T00:10:06;62.55;;;24.90;;
71566;SDS011;59403;47.456;19.120;2023-02-11T00:12:33;59.20;;;25.00;;
71566;SDS011;59403;47.456;19.120;2023-02-11T00:15:01;55.03;;;24.73;;
71566;SDS011;59403;47.456;19.120;2023-02-11T00:17:28;55.78;;;23.30;;
71566;SDS011;59403;47.456;19.120;2023-02-11T00:19:56;57.90;;;25.08;;
71566;SDS011;59403;47.456;19.120;2023-02-11T00:22:23;61.25;;;25.00;;
71566;SDS011;59403;47.456;19.120;2023-02-11T00:24:50;59.97;;;24.55;;
71566;SDS011;59403;47.456;19.120;2023-02-11T00:27:17;57.43;;;26.13;;
71566;SDS011;59403;47.456;19.120;2023-02-11T00:29:44;59.10;;;26.12;;
71566;SDS011;59403;47.456;19.120;2023-02-11T00:32:11;65.80;;;26.65;;
71566;SDS011;59403;47.456;19.120;2023-02-11T00:34:37;62.00;;;25.95;;
71566;SDS011;59403;47.456;19.120;2023-02-11T00:37:06;60.47;;;25.85;;
71566;SDS011;59403;47.456;19.120;2023-02-11T00:39:33;55.37;;;25.07;;
71566;SDS011;59403;47.456;19.120;2023-02-11T00:41:59;63.90;;;25.85;;
71566;SDS011;59403;47.456;19.120;2023-02-11T00:44:26;63.67;;;27.17;;
71566;SDS011;59403;47.456;19.120;2023-02-11T00:46:53;65.10;;;27.10;;
71566;SDS011;59403;47.456;19.120;2023-02-11T00:49:20;69.95;;;28.40;;
71566;SDS011;59403;47.456;19.120;2023-02-11T00:51:47;68.20;;;28.30;;
71566;SDS011;59403;47.456;19.120;2023-02-11T00:54:15;60.17;;;26.35;;
71566;SDS011;59403;47.456;19.120;2023-02-11T00:56:42;63.22;;;26.98;;
71566;SDS011;59403;47.456;19.120;2023-02-11T00:59:09;64.75;;;26.35;;
71566;SDS011;59403;47.456;19.120;2023-02-11T01:01:36;65.53;;;28.17;;
71566;SDS011;59403;47.456;19.120;2023-02-11T01:04:03;55.50;;;24.47;;
71566;SDS011;59403;47.456;19.120;2023-02-11T01:06:30;55.15;;;23.58;;
71566;SDS011;59403;47.456;19.120;2023-02-11T01:08:56;55.28;;;23.33;;
71566;SDS011;59403;47.456;19.120;2023-02-11T01:11:25;58.05;;;21.37;;
71566;SDS011;59403;47.456;19.120;2023-02-11T01:13:51;51.47;;;21.92;;
71566;SDS011;59403;47.456;19.120;2023-02-11T01:16:19;49.30;;;20.67;;
71566;SDS011;59403;47.456;19.120;2023-02-11T01:18:46;56.30;;;21.65;;
71566;SDS011;59403;47.456;19.120;2023-02-11T01:21:13;49.80;;;21.77;;
71566;SDS011;59403;47.456;19.120;2023-02-11T01:23:40;53.60;;;21.40;;
71566;SDS011;59403;47.456;19.120;2023-02-11T01:26:07;53.95;;;20.62;;
71566;SDS011;59403;47.456;19.120;2023-02-11T01:28:37;56.37;;;21.90;;
71566;SDS011;59403;47.456;19.120;2023-02-11T01:31:04;53.25;;;20.67;;
71566;SDS011;59403;47.456;19.120;2023-02-11T01:33:30;49.72;;;21.12;;
71566;SDS011;59403;47.456;19.120;2023-02-11T01:35:59;47.72;;;20.98;;
71566;SDS011;59403;47.456;19.120;2023-02-11T01:38:27;47.85;;;20.30;;
71566;SDS011;59403;47.456;19.120;2023-02-11T01:40:55;49.93;;;19.80;;
71566;SDS011;59403;47.456;19.120;2023-02-11T01:43:23;42.83;;;19.37;;
71566;SDS011;59403;47.456;19.120;2023-02-11T01:48:49;51.72;;;21.17;;
71566;SDS011;59403;47.456;19.120;2023-02-11T01:51:20;48.58;;;20.65;;
71566;SDS011;59403;47.456;19.120;2023-02-11T01:53:49;51.27;;;20.20;;
71566;SDS011;59403;47.456;19.120;2023-02-11T01:56:36;56.92;;;22.45;;
71566;SDS011;59403;47.456;19.120;2023-02-11T01:59:26;54.70;;;22.20;;
71566;SDS011;59403;47.456;19.120;2023-02-11T02:01:58;49.15;;;20.23;;
71566;SDS011;59403;47.456;19.120;2023-02-11T02:04:32;53.08;;;20.70;;
71566;SDS011;59403;47.456;19.120;2023-02-11T02:07:07;54.40;;;22.10;;
71566;SDS011;59403;47.456;19.120;2023-02-11T02:09:38;58.65;;;23.25;;
71566;SDS011;59403;47.456;19.120;2023-02-11T02:12:09;58.13;;;24.08;;
71566;SDS011;59403;47.456;19.120;2023-02-11T02:14:37;59.45;;;24.37;;
71566;SDS011;59403;47.456;19.120;2023-02-11T02:17:06;52.22;;;21.87;;
71566;SDS011;59403;47.456;19.120;2023-02-11T02:22:51;58.63;;;22.60;;
71566;SDS011;59403;47.456;19.120;2023-02-11T02:28:39;59.78;;;22.70;;
71566;SDS011;59403;47.456;19.120;2023-02-11T02:31:25;57.60;;;24.80;;
71566;SDS011;59403;47.456;19.120;2023-02-11T02:34:05;59.90;;;24.67;;
71566;SDS011;59403;47.456;19.120;2023-02-11T02:36:36;54.33;;;23.38;;
71566;SDS011;59403;47.456;19.120;2023-02-11T02:39:08;57.58;;;24.58;;
71566;SDS011;59403;47.456;19.120;2023-02-11T02:41:39;56.10;;;23.20;;
71566;SDS011;59403;47.456;19.120;2023-02-11T02:44:07;63.40;;;24.75;;
71566;SDS011;59403;47.456;19.120;2023-02-11T02:46:34;69.77;;;26.83;;
71566;SDS011;59403;47.456;19.120;2023-02-11T02:49:02;64.15;;;26.27;;
71566;SDS011;59403;47.456;19.120;2023-02-11T02:54:34;60.50;;;24.63;;
71566;SDS011;59403;47.456;19.120;2023-02-11T02:57:27;58.63;;;24.70;;
71566;SDS011;59403;47.456;19.120;2023-02-11T03:00:07;61.40;;;25.00;;
71566;SDS011;59403;47.456;19.120;2023-02-11T03:02:41;61.78;;;26.10;;
71566;SDS011;59403;47.456;19.120;2023-02-11T03:05:20;63.78;;;25.55;;
71566;SDS011;59403;47.456;19.120;2023-02-11T03:07:55;67.45;;;25.33;;
71566;SDS011;59403;47.456;19.120;2023-02-11T03:10:29;71.53;;;26.37;;
71566;SDS011;59403;47.456;19.120;2023-02-11T03:12:58;60.60;;;25.30;;
71566;SDS011;59403;47.456;19.120;2023-02-11T03:15:27;63.05;;;24.70;;
71566;SDS011;59403;47.456;19.120;2023-02-11T03:17:59;62.95;;;26.58;;
71566;SDS011;59403;47.456;19.120;2023-02-11T03:20:30;69.28;;;28.05;;
71566;SDS011;59403;47.456;19.120;2023-02-11T03:23:07;66.10;;;27.85;;
71566;SDS011;59403;47.456;19.120;2023-02-11T03:25:40;63.70;;;26.77;;
71566;SDS011;59403;47.456;19.120;2023-02-11T03:28:12;68.57;;;27.87;;
71566;SDS011;59403;47.456;19.120;2023-02-11T03:30:44;64.28;;;26.65;;
71566;SDS011;59403;47.456;19.120;2023-02-11T03:33:20;71.43;;;28.40;;
71566;SDS011;59403;47.456;19.120;2023-02-11T03:35:54;66.43;;;28.35;;
71566;SDS011;59403;47.456;19.120;2023-02-11T03:38:24;72.60;;;29.33;;
71566;SDS011;59403;47.456;19.120;2023-02-11T03:40:56;66.68;;;27.13;;
71566;SDS011;59403;47.456;19.120;2023-02-11T03:43:25;70.32;;;29.25;;
71566;SDS011;59403;47.456;19.120;2023-02-11T03:46:00;69.35;;;28.05;;
71566;SDS011;59403;47.456;19.120;2023-02-11T03:48:28;75.62;;;29.08;;
71566;SDS011;59403;47.456;19.120;2023-02-11T03:51:00;72.23;;;28.43;;
71566;SDS011;59403;47.456;19.120;2023-02-11T03:53:30;74.05;;;29.95;;
71566;SDS011;59403;47.456;19.120;2023-02-11T03:55:58;74.07;;;28.58;;
71566;SDS011;59403;47.456;19.120;2023-02-11T03:58:28;73.28;;;30.92;;
71566;SDS011;59403;47.456;19.120;2023-02-11T04:00:55;66.97;;;28.45;;
71566;SDS011;59403;47.456;19.120;2023-02-11T04:03:22;74.87;;;29.50;;
71566;SDS011;59403;47.456;19.120;2023-02-11T04:05:49;69.30;;;28.55;;
71566;SDS011;59403;47.456;19.120;2023-02-11T04:08:17;69.28;;;29.05;;
71566;SDS011;59403;47.456;19.120;2023-02-11T04:10:44;74.12;;;29.05;;
71566;SDS011;59403;47.456;19.120;2023-02-11T04:13:11;81.47;;;29.45;;
71566;SDS011;59403;47.456;19.120;2023-02-11T04:15:38;71.50;;;30.03;;
71566;SDS011;59403;47.456;19.120;2023-02-11T04:18:05;71.43;;;28.35;;
71566;SDS011;59403;47.456;19.120;2023-02-11T04:20:32;71.05;;;28.67;;
71566;SDS011;59403;47.456;19.120;2023-02-11T04:22:59;69.40;;;28.95;;
71566;SDS011;59403;47.456;19.120;2023-02-11T04:25:27;72.28;;;28.23;;
71566;SDS011;59403;47.456;19.120;2023-02-11T04:27:54;72.47;;;29.60;;
71566;SDS011;59403;47.456;19.120;2023-02-11T04:30:20;74.78;;;29.50;;
71566;SDS011;59403;47.456;19.120;2023-02-11T04:32:48;69.75;;;29.20;;
71566;SDS011;59403;47.456;19.120;2023-02-11T04:35:14;71.85;;;30.15;;
71566;SDS011;59403;47.456;19.120;2023-02-11T04:37:41;69.75;;;28.33;;
71566;SDS011;59403;47.456;19.120;2023-02-11T04:40:08;74.30;;;30.23;;
71566;SDS011;59403;47.456;19.120;2023-02-11T04:42:37;73.65;;;29.77;;
71566;SDS011;59403;47.456;19.120;2023-02-11T04:45:04;76.95;;;30.45;;
71566;SDS011;59403;47.456;19.120;2023-02-11T04:47:32;72.10;;;28.80;;
71566;SDS011;59403;47.456;19.120;2023-02-11T04:50:00;74.30;;;30.00;;
71566;SDS011;59403;47.456;19.120;2023-02-11T04:52:27;77.63;;;30.90;;
71566;SDS011;59403;47.456;19.120;2023-02-11T04:54:54;72.50;;;28.87;;
71566;SDS011;59403;47.456;19.120;2023-02-11T04:57:20;70.62;;;28.62;;
71566;SDS011;59403;47.456;19.120;2023-02-11T04:59:49;65.43;;;27.92;;
71566;SDS011;59403;47.456;19.120;2023-02-11T05:02:15;71.15;;;29.65;;
71566;SDS011;59403;47.456;19.120;2023-02-11T05:04:42;76.27;;;29.57;;
71566;SDS011;59403;47.456;19.120;2023-02-11T05:07:09;69.62;;;28.15;;
71566;SDS011;59403;47.456;19.120;2023-02-11T05:09:36;77.45;;;29.50;;
71566;SDS011;59403;47.456;19.120;2023-02-11T05:12:03;74.65;;;28.38;;
71566;SDS011;59403;47.456;19.120;2023-02-11T05:14:30;80.57;;;30.08;;
71566;SDS011;59403;47.456;19.120;2023-02-11T05:16:58;69.67;;;28.70;;
71566;SDS011;59403;47.456;19.120;2023-02-11T05:19:25;70.18;;;29.12;;
71566;SDS011;59403;47.456;19.120;2023-02-11T05:21:52;73.95;;;30.52;;
71566;SDS011;59403;47.456;19.120;2023-02-11T05:24:19;72.10;;;30.05;;
71566;SDS011;59403;47.456;19.120;2023-02-11T05:26:46;74.57;;;28.15;;
71566;SDS011;59403;47.456;19.120;2023-02-11T05:29:13;74.70;;;29.37;;
71566;SDS011;59403;47.456;19.120;2023-02-11T05:31:39;70.75;;;27.52;;
71566;SDS011;59403;47.456;19.120;2023-02-11T05:34:08;67.45;;;28.42;;
71566;SDS011;59403;47.456;19.120;2023-02-11T05:36:34;70.30;;;29.05;;
71566;SDS011;59403;47.456;19.120;2023-02-11T05:39:02;71.10;;;27.73;;
71566;SDS011;59403;47.456;19.120;2023-02-11T05:41:31;69.47;;;27.73;;
71566;SDS011;59403;47.456;19.120;2023-02-11T05:44:02;78.22;;;30.17;;
71566;SDS011;59403;47.456;19.120;2023-02-11T05:46:36;64.43;;;28.10;;
71566;SDS011;59403;47.456;19.120;2023-02-11T05:49:03;65.22;;;27.10;;
71566;SDS011;59403;47.456;19.120;2023-02-11T05:51:31;64.60;;;27.73;;
71566;SDS011;59403;47.456;19.120;2023-02-11T05:53:58;66.20;;;27.17;;
71566;SDS011;59403;47.456;19.120;2023-02-11T05:56:24;68.70;;;28.73;;
71566;SDS011;59403;47.456;19.120;2023-02-11T05:58:51;72.93;;;30.05;;
71566;SDS011;59403;47.456;19.120;2023-02-11T06:01:18;82.62;;;30.42;;
71566;SDS011;59403;47.456;19.120;2023-02-11T06:03:45;81.43;;;31.83;;
71566;SDS011;59403;47.456;19.120;2023-02-11T06:06:14;78.50;;;31.43;;
71566;SDS011;59403;47.456;19.120;2023-02-11T06:08:42;73.53;;;30.58;;
71566;SDS011;59403;47.456;19.120;2023-02-11T06:11:09;78.20;;;31.23;;
71566;SDS011;59403;47.456;19.120;2023-02-11T06:13:36;74.85;;;32.28;;
71566;SDS011;59403;47.456;19.120;2023-02-11T06:16:03;78.68;;;30.20;;
71566;SDS011;59403;47.456;19.120;2023-02-11T06:18:30;75.73;;;30.63;;
71566;SDS011;59403;47.456;19.120;2023-02-11T06:20:57;69.25;;;29.70;;
71566;SDS011;59403;47.456;19.120;2023-02-11T06:23:24;74.50;;;31.20;;
71566;SDS011;59403;47.456;19.120;2023-02-11T06:25:53;76.12;;;31.17;;
71566;SDS011;59403;47.456;19.120;2023-02-11T06:28:19;70.37;;;30.60;;
71566;SDS011;59403;47.456;19.120;2023-02-11T06:30:46;82.40;;;31.47;;
71566;SDS011;59403;47.456;19.120;2023-02-11T06:33:14;78.22;;;30.67;;
71566;SDS011;59403;47.456;19.120;2023-02-11T06:35:41;73.60;;;30.48;;
71566;SDS011;59403;47.456;19.120;2023-02-11T06:38:08;82.70;;;32.85;;
71566;SDS011;59403;47.456;19.120;2023-02-11T06:40:37;73.37;;;30.92;;
71566;SDS011;59403;47.456;19.120;2023-02-11T06:43:05;73.97;;;30.80;;
71566;SDS011;59403;47.456;19.120;2023-02-11T06:45:32;67.53;;;29.17;;
71566;SDS011;59403;47.456;19.120;2023-02-11T06:47:59;69.55;;;29.17;;
71566;SDS011;59403;47.456;19.120;2023-02-11T06:50:25;71.85;;;29.58;;
71566;SDS011;59403;47.456;19.120;2023-02-11T06:52:52;79.75;;;32.15;;
71566;SDS011;59403;47.456;19.120;2023-02-11T07:00:46;76.75;;;30.45;;
71566;SDS011;59403;47.456;19.120;2023-02-11T07:03:19;76.55;;;32.03;;
71566;SDS011;59403;47.456;19.120;2023-02-11T07:05:46;83.07;;;33.55;;
71566;SDS011;59403;47.456;19.120;2023-02-11T07:08:13;80.43;;;33.07;;
71566;SDS011;59403;47.456;19.120;2023-02-11T07:10:40;80.38;;;32.70;;
71566;SDS011;59403;47.456;19.120;2023-02-11T07:13:07;76.68;;;31.45;;
71566;SDS011;59403;47.456;19.120;2023-02-11T07:15:36;81.30;;;31.52;;
71566;SDS011;59403;47.456;19.120;2023-02-11T07:18:03;75.15;;;30.33;;
71566;SDS011;59403;47.456;19.120;2023-02-11T07:20:30;78.77;;;29.80;;
71566;SDS011;59403;47.456;19.120;2023-02-11T07:22:57;75.53;;;29.67;;
71566;SDS011;59403;47.456;19.120;2023-02-11T07:25:24;78.55;;;31.87;;
71566;SDS011;59403;47.456;19.120;2023-02-11T07:27:51;83.40;;;32.30;;
71566;SDS011;59403;47.456;19.120;2023-02-11T07:30:18;80.30;;;32.53;;
71566;SDS011;59403;47.456;19.120;2023-02-11T07:32:47;76.60;;;32.67;;
71566;SDS011;59403;47.456;19.120;2023-02-11T07:35:13;79.10;;;31.52;;
71566;SDS011;59403;47.456;19.120;2023-02-11T07:37:41;78.20;;;33.33;;
71566;SDS011;59403;47.456;19.120;2023-02-11T07:40:08;82.25;;;32.35;;
71566;SDS011;59403;47.456;19.120;2023-02-11T07:42:35;78.37;;;32.25;;
71566;SDS011;59403;47.456;19.120;2023-02-11T07:45:04;79.57;;;33.13;;
71566;SDS011;59403;47.456;19.120;2023-02-11T07:47:32;79.70;;;32.80;;
71566;SDS011;59403;47.456;19.120;2023-02-11T07:50:01;74.60;;;29.65;;
71566;SDS011;59403;47.456;19.120;2023-02-11T07:52:28;75.20;;;31.17;;
71566;SDS011;59403;47.456;19.120;2023-02-11T07:54:55;76.75;;;32.45;;
71566;SDS011;59403;47.456;19.120;2023-02-11T07:57:22;82.73;;;33.83;;
71566;SDS011;59403;47.456;19.120;2023-02-11T07:59:49;75.00;;;32.17;;
71566;SDS011;59403;47.456;19.120;2023-02-11T08:02:16;82.37;;;32.42;;
71566;SDS011;59403;47.456;19.120;2023-02-11T08:04:44;78.62;;;33.60;;
71566;SDS011;59403;47.456;19.120;2023-02-11T08:07:14;80.35;;;34.38;;
71566;SDS011;59403;47.456;19.120;2023-02-11T08:09:41;80.13;;;35.13;;
71566;SDS011;59403;47.456;19.120;2023-02-11T08:12:08;77.47;;;34.85;;
71566;SDS011;59403;47.456;19.120;2023-02-11T08:14:35;83.87;;;35.65;;
71566;SDS011;59403;47.456;19.120;2023-02-11T08:17:02;79.60;;;34.00;;
71566;SDS011;59403;47.456;19.120;2023-02-11T08:19:30;72.45;;;32.05;;
71566;SDS011;59403;47.456;19.120;2023-02-11T08:21:57;70.67;;;29.73;;
71566;SDS011;59403;47.456;19.120;2023-02-11T08:24:27;60.65;;;26.35;;
71566;SDS011;59403;47.456;19.120;2023-02-11T08:26:54;56.03;;;24.75;;
71566;SDS011;59403;47.456;19.120;2023-02-11T08:29:21;55.60;;;23.10;;
71566;SDS011;59403;47.456;19.120;2023-02-11T08:31:48;52.08;;;23.10;;
71566;SDS011;59403;47.456;19.120;2023-02-11T08:34:15;55.60;;;21.80;;
71566;SDS011;59403;47.456;19.120;2023-02-11T08:36:43;51.47;;;23.08;;
71566;SDS011;59403;47.456;19.120;2023-02-11T08:39:12;53.53;;;22.23;;
71566;SDS011;59403;47.456;19.120;2023-02-11T08:41:41;50.95;;;22.10;;
71566;SDS011;59403;47.456;19.120;2023-02-11T08:44:09;50.08;;;21.70;;
71566;SDS011;59403;47.456;19.120;2023-02-11T08:46:36;52.30;;;22.60;;
71566;SDS011;59403;47.456;19.120;2023-02-11T08:49:03;48.33;;;21.42;;
71566;SDS011;59403;47.456;19.120;2023-02-11T08:51:30;50.90;;;21.52;;
71566;SDS011;59403;47.456;19.120;2023-02-11T08:53:58;53.05;;;21.92;;
71566;SDS011;59403;47.456;19.120;2023-02-11T08:56:25;51.30;;;21.77;;
71566;SDS011;59403;47.456;19.120;2023-02-11T08:58:54;53.40;;;22.83;;
71566;SDS011;59403;47.456;19.120;2023-02-11T09:01:21;50.47;;;21.33;;
71566;SDS011;59403;47.456;19.120;2023-02-11T09:03:49;60.28;;;22.85;;
71566;SDS011;59403;47.456;19.120;2023-02-11T09:06:17;58.30;;;23.35;;
71566;SDS011;59403;47.456;19.120;2023-02-11T09:08:46;55.72;;;23.80;;
71566;SDS011;59403;47.456;19.120;2023-02-11T09:11:14;51.77;;;22.77;;
71566;SDS011;59403;47.456;19.120;2023-02-11T09:13:42;48.38;;;21.45;;
71566;SDS011;59403;47.456;19.120;2023-02-11T09:16:16;59.38;;;24.48;;
71566;SDS011;59403;47.456;19.120;2023-02-11T09:18:44;51.20;;;22.92;;
71566;SDS011;59403;47.456;19.120;2023-02-11T09:21:12;51.78;;;22.90;;
71566;SDS011;59403;47.456;19.120;2023-02-11T09:23:40;52.00;;;22.57;;
71566;SDS011;59403;47.456;19.120;2023-02-11T09:26:11;58.13;;;23.27;;
71566;SDS011;59403;47.456;19.120;2023-02-11T09:28:39;53.55;;;22.55;;
71566;SDS011;59403;47.456;19.120;2023-02-11T09:31:06;54.22;;;23.73;;
71566;SDS011;59403;47.456;19.120;2023-02-11T09:33:36;53.08;;;23.55;;
71566;SDS011;59403;47.456;19.120;2023-02-11T09:36:06;55.63;;;23.60;;
71566;SDS011;59403;47.456;19.120;2023-02-11T09:38:34;49.05;;;21.37;;
71566;SDS011;59403;47.456;19.120;2023-02-11T09:41:01;60.00;;;21.80;;
71566;SDS011;59403;47.456;19.120;2023-02-11T09:43:32;57.65;;;20.80;;
71566;SDS011;59403;47.456;19.120;2023-02-11T09:46:04;50.03;;;20.48;;
71566;SDS011;59403;47.456;19.120;2023-02-11T09:48:35;63.33;;;21.37;;
71566;SDS011;59403;47.456;19.120;2023-02-11T09:51:10;49.25;;;21.70;;
71566;SDS011;59403;47.456;19.120;2023-02-11T09:53:42;47.60;;;20.92;;
71566;SDS011;59403;47.456;19.120;2023-02-11T09:56:10;48.45;;;21.17;;
71566;SDS011;59403;47.456;19.120;2023-02-11T09:58:39;56.83;;;23.98;;
71566;SDS011;59403;47.456;19.120;2023-02-11T10:01:13;48.67;;;21.67;;
71566;SDS011;59403;47.456;19.120;2023-02-11T10:03:51;49.08;;;21.52;;
71566;SDS011;59403;47.456;19.120;2023-02-11T10:09:17;50.50;;;21.62;;
71566;SDS011;59403;47.456;19.120;2023-02-11T10:11:56;50.67;;;22.58;;
71566;SDS011;59403;47.456;19.120;2023-02-11T10:14:35;48.80;;;21.80;;
71566;SDS011;59403;47.456;19.120;2023-02-11T10:17:28;54.22;;;21.92;;
71566;SDS011;59403;47.456;19.120;2023-02-11T10:20:10;44.70;;;21.10;;
71566;SDS011;59403;47.456;19.120;2023-02-11T10:22:46;49.85;;;22.10;;
71566;SDS011;59403;47.456;19.120;2023-02-11T10:25:19;49.80;;;21.60;;
71566;SDS011;59403;47.456;19.120;2023-02-11T10:27:48;45.40;;;20.90;;
71566;SDS011;59403;47.456;19.120;2023-02-11T10:30:19;51.47;;;22.00;;
71566;SDS011;59403;47.456;19.120;2023-02-11T10:32:53;47.08;;;20.35;;
71566;SDS011;59403;47.456;19.120;2023-02-11T10:35:27;48.75;;;22.33;;
71566;SDS011;59403;47.456;19.120;2023-02-11T10:37:54;52.22;;;22.05;;
71566;SDS011;59403;47.456;19.120;2023-02-11T10:40:22;48.47;;;22.13;;
71566;SDS011;59403;47.456;19.120;2023-02-11T10:42:51;47.28;;;22.00;;
71566;SDS011;59403;47.456;19.120;2023-02-11T10:45:21;48.70;;;21.62;;
71566;SDS011;59403;47.456;19.120;2023-02-11T10:47:52;53.65;;;23.55;;
71566;SDS011;59403;47.456;19.120;2023-02-11T10:50:21;50.65;;;22.60;;
71566;SDS011;59403;47.456;19.120;2023-02-11T10:52:51;48.30;;;21.70;;
71566;SDS011;59403;47.456;19.120;2023-02-11T10:55:18;51.83;;;22.73;;
71566;SDS011;59403;47.456;19.120;2023-02-11T10:57:51;51.25;;;23.77;;
71566;SDS011;59403;47.456;19.120;2023-02-11T11:00:30;51.20;;;23.00;;
71566;SDS011;59403;47.456;19.120;2023-02-11T11:03:02;49.47;;;21.52;;
71566;SDS011;59403;47.456;19.120;2023-02-11T11:05:31;53.53;;;23.67;;
71566;SDS011;59403;47.456;19.120;2023-02-11T11:08:03;48.50;;;21.25;;
71566;SDS011;59403;47.456;19.120;2023-02-11T11:10:36;46.95;;;22.20;;
71566;SDS011;59403;47.456;19.120;2023-02-11T11:13:25;51.85;;;23.27;;
71566;SDS011;59403;47.456;19.120;2023-02-11T11:16:06;53.63;;;23.65;;
71566;SDS011;59403;47.456;19.120;2023-02-11T11:18:51;51.20;;;23.73;;
71566;SDS011;59403;47.456;19.120;2023-02-11T11:21:20;50.33;;;22.80;;
71566;SDS011;59403;47.456;19.120;2023-02-11T11:23:55;47.65;;;22.08;;
71566;SDS011;59403;47.456;19.120;2023-02-11T11:26:27;49.30;;;21.45;;
71566;SDS011;59403;47.456;19.120;2023-02-11T11:29:06;43.40;;;20.10;;
71566;SDS011;59403;47.456;19.120;2023-02-11T11:31:44;51.47;;;22.33;;
71566;SDS011;59403;47.456;19.120;2023-02-11T11:34:16;50.88;;;22.08;;
71566;SDS011;59403;47.456;19.120;2023-02-11T11:36:52;55.12;;;22.25;;
71566;SDS011;59403;47.456;19.120;2023-02-11T11:39:23;58.45;;;24.83;;
71566;SDS011;59403;47.456;19.120;2023-02-11T11:41:53;44.58;;;19.50;;
71566;SDS011;59403;47.456;19.120;2023-02-11T11:44:28;47.17;;;20.03;;
71566;SDS011;59403;47.456;19.120;2023-02-11T11:50:13;45.17;;;19.10;;
71566;SDS011;59403;47.456;19.120;2023-02-11T11:52:58;47.78;;;19.05;;
71566;SDS011;59403;47.456;19.120;2023-02-11T11:55:34;41.08;;;18.85;;
71566;SDS011;59403;47.456;19.120;2023-02-11T11:58:04;44.03;;;19.07;;
71566;SDS011;59403;47.456;19.120;2023-02-11T12:00:40;41.22;;;18.25;;
71566;SDS011;59403;47.456;19.120;2023-02-11T12:03:29;40.03;;;17.92;;
71566;SDS011;59403;47.456;19.120;2023-02-11T12:06:21;35.88;;;16.80;;
71566;SDS011;59403;47.456;19.120;2023-02-11T12:08:58;37.90;;;17.17;;
71566;SDS011;59403;47.456;19.120;2023-02-11T12:11:37;40.30;;;18.87;;
71566;SDS011;59403;47.456;19.120;2023-02-11T12:14:29;37.22;;;18.58;;
71566;SDS011;59403;47.456;19.120;2023-02-11T12:17:06;39.97;;;18.15;;
71566;SDS011;59403;47.456;19.120;2023-02-11T12:19:49;41.65;;;17.98;;
71566;SDS011;59403;47.456;19.120;2023-02-11T12:22:29;35.55;;;16.73;;
71566;SDS011;59403;47.456;19.120;2023-02-11T12:25:19;38.33;;;16.07;;
71566;SDS011;59403;47.456;19.120;2023-02-11T12:27:55;32.33;;;16.30;;
71566;SDS011;59403;47.456;19.120;2023-02-11T12:32:58;27.23;;;13.68;;
71566;SDS011;59403;47.456;19.120;2023-02-11T12:35:35;30.45;;;12.85;;
71566;SDS011;59403;47.456;19.120;2023-02-11T12:38:19;27.23;;;12.53;;
71566;SDS011;59403;47.456;19.120;2023-02-11T12:41:13;27.17;;;12.48;;
71566;SDS011;59403;47.456;19.120;2023-02-11T12:44:10;28.67;;;12.70;;
71566;SDS011;59403;47.456;19.120;2023-02-11T12:46:44;30.85;;;12.93;;
71566;SDS011;59403;47.456;19.120;2023-02-11T12:49:23;27.60;;;12.55;;
71566;SDS011;59403;47.456;19.120;2023-02-11T12:52:16;28.37;;;12.27;;
71566;SDS011;59403;47.456;19.120;2023-02-11T12:54:53;28.10;;;13.02;;
71566;SDS011;59403;47.456;19.120;2023-02-11T12:57:26;28.60;;;12.95;;
71566;SDS011;59403;47.456;19.120;2023-02-11T12:59:59;31.40;;;13.10;;
71566;SDS011;59403;47.456;19.120;2023-02-11T13:02:32;28.05;;;13.23;;
71566;SDS011;59403;47.456;19.120;2023-02-11T13:05:07;28.10;;;11.83;;
71566;SDS011;59403;47.456;19.120;2023-02-11T13:07:47;27.45;;;12.10;;
71566;SDS011;59403;47.456;19.120;2023-02-11T13:10:25;26.65;;;12.48;;
71566;SDS011;59403;47.456;19.120;2023-02-11T13:12:55;25.58;;;11.70;;
71566;SDS011;59403;47.456;19.120;2023-02-11T13:15:44;29.67;;;12.40;;
71566;SDS011;59403;47.456;19.120;2023-02-11T13:18:28;26.73;;;11.40;;
71566;SDS011;59403;47.456;19.120;2023-02-11T13:21:07;27.62;;;12.18;;
71566;SDS011;59403;47.456;19.120;2023-02-11T13:23:49;25.80;;;12.02;;
71566;SDS011;59403;47.456;19.120;2023-02-11T13:26:26;28.10;;;11.93;;
71566;SDS011;59403;47.456;19.120;2023-02-11T13:29:08;27.92;;;11.68;;
71566;SDS011;59403;47.456;19.120;2023-02-11T13:31:52;27.43;;;11.07;;
71566;SDS011;59403;47.456;19.120;2023-02-11T13:34:24;23.83;;;10.70;;
71566;SDS011;59403;47.456;19.120;2023-02-11T13:36:55;25.35;;;11.30;;
71566;SDS011;59403;47.456;19.120;2023-02-11T13:39:23;24.02;;;10.77;;
71566;SDS011;59403;47.456;19.120;2023-02-11T13:41:50;29.65;;;12.35;;
71566;SDS011;59403;47.456;19.120;2023-02-11T13:44:28;24.80;;;9.80;;
71566;SDS011;59403;47.456;19.120;2023-02-11T13:46:59;22.00;;;9.48;;
71566;SDS011;59403;47.456;19.120;2023-02-11T13:49:31;30.58;;;11.65;;
71566;SDS011;59403;47.456;19.120;2023-02-11T13:52:05;24.17;;;10.25;;
71566;SDS011;59403;47.456;19.120;2023-02-11T13:54:45;23.77;;;9.95;;
71566;SDS011;59403;47.456;19.120;2023-02-11T13:57:20;25.37;;;11.17;;
71566;SDS011;59403;47.456;19.120;2023-02-11T13:59:58;36.30;;;14.85;;
71566;SDS011;59403;47.456;19.120;2023-02-11T14:02:29;37.92;;;13.00;;
71566;SDS011;59403;47.456;19.120;2023-02-11T14:05:19;33.10;;;9.57;;
71566;SDS011;59403;47.456;19.120;2023-02-11T14:08:16;24.83;;;10.75;;
71566;SDS011;59403;47.456;19.120;2023-02-11T14:19:56;30.33;;;12.75;;
71566;SDS011;59403;47.456;19.120;2023-02-11T14:22:25;23.52;;;9.65;;
71566;SDS011;59403;47.456;19.120;2023-02-11T14:24:57;28.23;;;12.10;;
71566;SDS011;59403;47.456;19.120;2023-02-11T14:27:30;24.35;;;9.70;;
71566;SDS011;59403;47.456;19.120;2023-02-11T14:33:00;22.02;;;8.70;;
71566;SDS011;59403;47.456;19.120;2023-02-11T14:35:52;24.30;;;9.02;;
71566;SDS011;59403;47.456;19.120;2023-02-11T14:38:29;26.27;;;10.13;;
71566;SDS011;59403;47.456;19.120;2023-02-11T14:41:07;24.45;;;10.73;;
71566;SDS011;59403;47.456;19.120;2023-02-11T14:43:38;24.85;;;10.10;;
71566;SDS011;59403;47.456;19.120;2023-02-11T14:46:07;24.15;;;9.10;;
71566;SDS011;59403;47.456;19.120;2023-02-11T14:48:35;23.60;;;10.48;;
71566;SDS011;59403;47.456;19.120;2023-02-11T14:51:07;24.40;;;10.67;;
71566;SDS011;59403;47.456;19.120;2023-02-11T14:53:39;21.92;;;9.38;;
71566;SDS011;59403;47.456;19.120;2023-02-11T14:56:18;23.73;;;10.50;;
71566;SDS011;59403;47.456;19.120;2023-02-11T14:58:46;24.67;;;10.15;;
71566;SDS011;59403;47.456;19.120;2023-02-11T15:01:23;23.60;;;10.57;;
71566;SDS011;59403;47.456;19.120;2023-02-11T15:03:53;32.10;;;10.00;;
71566;SDS011;59403;47.456;19.120;2023-02-11T15:06:25;28.33;;;10.88;;
71566;SDS011;59403;47.456;19.120;2023-02-11T15:08:56;24.12;;;9.98;;